sensor_id;sensor_type;location;lat;lon;timestamp;P1;durP1;ratioP1;P2;durP2;ratioP2
72053;SDS011;59918;51.280;7.950;2023-07-31T00:01:16;5.47;;;4.53;;
72053;SDS011;59918;51.280;7.950;2023-07-31T00:03:41;6.63;;;4.93;;
72053;SDS011;59918;51.280;7.950;2023-07-31T00:06:06;5.97;;;3.50;;
72053;SDS011;59918;51.280;7.950;2023-07-31T00:08:31;4.00;;;3.63;;
72053;SDS011;59918;51.280;7.950;2023-07-31T00:11:00;7.35;;;4.05;;
72053;SDS011;59918;51.280;7.950;2023-07-31T00:13:25;4.78;;;3.15;;
72053;SDS011;59918;51.280;7.950;2023-07-31T00:15:50;5.53;;;3.70;;
72053;SDS011;59918;51.280;7.950;2023-07-31T00:18:15;5.47;;;3.80;;
72053;SDS011;59918;51.280;7.950;2023-07-31T00:20:41;5.13;;;3.75;;
72053;SDS011;59918;51.280;7.950;2023-07-31T00:23:06;6.30;;;4.18;;
72053;SDS011;59918;51.280;7.950;2023-07-31T00:25:31;6.70;;;4.57;;
72053;SDS011;59918;51.280;7.950;2023-07-31T00:28:03;9.35;;;4.03;;
72053;SDS011;59918;51.280;7.950;2023-07-31T00:30:28;8.00;;;4.63;;
72053;SDS011;59918;51.280;7.950;2023-07-31T00:32:56;6.07;;;4.38;;
72053;SDS011;59918;51.280;7.950;2023-07-31T00:35:23;7.18;;;4.70;;
72053;SDS011;59918;51.280;7.950;2023-07-31T00:37:49;6.03;;;4.53;;
72053;SDS011;59918;51.280;7.950;2023-07-31T00:40:14;8.27;;;4.55;;
72053;SDS011;59918;51.280;7.950;2023-07-31T00:42:39;6.85;;;4.68;;
72053;SDS011;59918;51.280;7.950;2023-07-31T00:45:05;6.50;;;4.70;;
72053;SDS011;59918;51.280;7.950;2023-07-31T00:47:30;4.88;;;3.75;;
72053;SDS011;59918;51.280;7.950;2023-07-31T00:49:55;6.40;;;4.50;;
72053;SDS011;59918;51.280;7.950;2023-07-31T00:52:24;7.03;;;4.18;;
72053;SDS011;59918;51.280;7.950;2023-07-31T00:54:49;9.65;;;4.68;;
72053;SDS011;59918;51.280;7.950;2023-07-31T00:57:15;7.22;;;4.40;;
72053;SDS011;59918;51.280;7.950;2023-07-31T00:59:40;4.30;;;3.78;;
72053;SDS011;59918;51.280;7.950;2023-07-31T01:02:06;9.98;;;5.00;;
72053;SDS011;59918;51.280;7.950;2023-07-31T01:04:31;11.65;;;5.15;;
72053;SDS011;59918;51.280;7.950;2023-07-31T01:07:09;8.93;;;4.82;;
72053;SDS011;59918;51.280;7.950;2023-07-31T01:09:55;4.82;;;4.43;;
72053;SDS011;59918;51.280;7.950;2023-07-31T01:12:25;9.48;;;5.53;;
72053;SDS011;59918;51.280;7.950;2023-07-31T01:17:28;9.23;;;4.95;;
72053;SDS011;59918;51.280;7.950;2023-07-31T01:19:54;7.78;;;4.82;;
72053;SDS011;59918;51.280;7.950;2023-07-31T01:28:29;8.43;;;5.35;;
72053;SDS011;59918;51.280;7.950;2023-07-31T01:31:02;12.20;;;6.22;;
72053;SDS011;59918;51.280;7.950;2023-07-31T01:33:31;10.60;;;6.10;;
72053;SDS011;59918;51.280;7.950;2023-07-31T01:36:03;7.65;;;5.72;;
72053;SDS011;59918;51.280;7.950;2023-07-31T01:38:28;10.55;;;6.00;;
72053;SDS011;59918;51.280;7.950;2023-07-31T01:40:54;9.82;;;6.18;;
72053;SDS011;59918;51.280;7.950;2023-07-31T01:43:19;9.30;;;6.00;;
72053;SDS011;59918;51.280;7.950;2023-07-31T01:45:49;13.38;;;5.70;;
72053;SDS011;59918;51.280;7.950;2023-07-31T01:48:15;8.57;;;5.97;;
72053;SDS011;59918;51.280;7.950;2023-07-31T01:50:40;7.93;;;6.03;;
72053;SDS011;59918;51.280;7.950;2023-07-31T01:53:05;9.02;;;6.05;;
72053;SDS011;59918;51.280;7.950;2023-07-31T01:55:30;10.00;;;5.70;;
72053;SDS011;59918;51.280;7.950;2023-07-31T01:57:56;9.50;;;5.78;;
72053;SDS011;59918;51.280;7.950;2023-07-31T02:00:21;10.48;;;5.47;;
72053;SDS011;59918;51.280;7.950;2023-07-31T02:02:49;10.55;;;5.43;;
72053;SDS011;59918;51.280;7.950;2023-07-31T02:05:14;11.40;;;5.43;;
72053;SDS011;59918;51.280;7.950;2023-07-31T02:07:39;8.57;;;4.80;;
72053;SDS011;59918;51.280;7.950;2023-07-31T02:10:05;12.43;;;5.00;;
72053;SDS011;59918;51.280;7.950;2023-07-31T02:12:30;8.05;;;4.72;;
72053;SDS011;59918;51.280;7.950;2023-07-31T02:14:55;8.45;;;4.80;;
72053;SDS011;59918;51.280;7.950;2023-07-31T02:17:21;8.07;;;4.65;;
72053;SDS011;59918;51.280;7.950;2023-07-31T02:19:49;10.73;;;5.00;;
72053;SDS011;59918;51.280;7.950;2023-07-31T02:22:14;8.90;;;4.65;;
72053;SDS011;59918;51.280;7.950;2023-07-31T02:24:40;8.77;;;4.07;;
72053;SDS011;59918;51.280;7.950;2023-07-31T02:27:05;7.50;;;4.50;;
72053;SDS011;59918;51.280;7.950;2023-07-31T02:29:30;6.35;;;4.10;;
72053;SDS011;59918;51.280;7.950;2023-07-31T02:31:56;12.00;;;4.65;;
72053;SDS011;59918;51.280;7.950;2023-07-31T02:34:21;6.53;;;4.72;;
72053;SDS011;59918;51.280;7.950;2023-07-31T02:36:46;8.45;;;5.22;;
72053;SDS011;59918;51.280;7.950;2023-07-31T02:39:11;8.05;;;5.18;;
72053;SDS011;59918;51.280;7.950;2023-07-31T02:41:37;11.23;;;5.13;;
72053;SDS011;59918;51.280;7.950;2023-07-31T02:44:02;10.30;;;4.97;;
72053;SDS011;59918;51.280;7.950;2023-07-31T02:46:27;8.20;;;4.40;;
72053;SDS011;59918;51.280;7.950;2023-07-31T02:48:52;6.70;;;4.63;;
72053;SDS011;59918;51.280;7.950;2023-07-31T02:51:18;9.93;;;4.72;;
72053;SDS011;59918;51.280;7.950;2023-07-31T02:53:43;6.30;;;4.13;;
72053;SDS011;59918;51.280;7.950;2023-07-31T02:56:10;5.13;;;4.00;;
72053;SDS011;59918;51.280;7.950;2023-07-31T02:58:35;8.68;;;3.95;;
72053;SDS011;59918;51.280;7.950;2023-07-31T03:01:01;8.50;;;4.35;;
72053;SDS011;59918;51.280;7.950;2023-07-31T03:03:26;7.13;;;3.75;;
72053;SDS011;59918;51.280;7.950;2023-07-31T03:05:51;6.63;;;3.78;;
72053;SDS011;59918;51.280;7.950;2023-07-31T03:08:16;6.43;;;3.55;;
72053;SDS011;59918;51.280;7.950;2023-07-31T03:10:41;7.65;;;3.58;;
72053;SDS011;59918;51.280;7.950;2023-07-31T03:13:07;9.85;;;3.60;;
72053;SDS011;59918;51.280;7.950;2023-07-31T03:15:32;14.73;;;4.10;;
72053;SDS011;59918;51.280;7.950;2023-07-31T03:17:57;6.70;;;3.45;;
72053;SDS011;59918;51.280;7.950;2023-07-31T03:20:22;8.73;;;3.72;;
72053;SDS011;59918;51.280;7.950;2023-07-31T03:22:48;9.65;;;3.75;;
72053;SDS011;59918;51.280;7.950;2023-07-31T03:25:13;5.38;;;3.50;;
72053;SDS011;59918;51.280;7.950;2023-07-31T03:27:38;8.75;;;3.25;;
72053;SDS011;59918;51.280;7.950;2023-07-31T03:30:03;6.88;;;3.70;;
72053;SDS011;59918;51.280;7.950;2023-07-31T03:32:29;7.03;;;3.60;;
72053;SDS011;59918;51.280;7.950;2023-07-31T03:34:54;7.72;;;3.45;;
72053;SDS011;59918;51.280;7.950;2023-07-31T03:37:20;7.72;;;3.88;;
72053;SDS011;59918;51.280;7.950;2023-07-31T03:39:45;8.25;;;3.78;;
72053;SDS011;59918;51.280;7.950;2023-07-31T03:42:10;10.45;;;3.35;;
72053;SDS011;59918;51.280;7.950;2023-07-31T03:44:35;9.38;;;3.28;;
72053;SDS011;59918;51.280;7.950;2023-07-31T03:47:01;6.55;;;3.85;;
72053;SDS011;59918;51.280;7.950;2023-07-31T03:49:26;7.50;;;4.15;;
72053;SDS011;59918;51.280;7.950;2023-07-31T03:51:51;11.63;;;4.80;;
72053;SDS011;59918;51.280;7.950;2023-07-31T03:54:16;7.90;;;3.70;;
72053;SDS011;59918;51.280;7.950;2023-07-31T03:56:42;8.73;;;3.95;;
72053;SDS011;59918;51.280;7.950;2023-07-31T03:59:07;7.32;;;3.85;;
72053;SDS011;59918;51.280;7.950;2023-07-31T04:01:32;11.80;;;4.57;;
72053;SDS011;59918;51.280;7.950;2023-07-31T04:03:57;8.00;;;4.55;;
72053;SDS011;59918;51.280;7.950;2023-07-31T04:06:22;9.32;;;4.25;;
72053;SDS011;59918;51.280;7.950;2023-07-31T04:08:48;7.93;;;3.78;;
72053;SDS011;59918;51.280;7.950;2023-07-31T04:11:13;6.97;;;4.00;;
72053;SDS011;59918;51.280;7.950;2023-07-31T04:13:38;8.68;;;3.97;;
72053;SDS011;59918;51.280;7.950;2023-07-31T04:16:04;8.68;;;3.90;;
72053;SDS011;59918;51.280;7.950;2023-07-31T04:18:29;14.85;;;3.58;;
72053;SDS011;59918;51.280;7.950;2023-07-31T04:20:55;6.85;;;4.05;;
72053;SDS011;59918;51.280;7.950;2023-07-31T04:23:20;8.98;;;4.35;;
72053;SDS011;59918;51.280;7.950;2023-07-31T04:25:45;10.38;;;3.83;;
72053;SDS011;59918;51.280;7.950;2023-07-31T04:28:10;7.18;;;3.97;;
72053;SDS011;59918;51.280;7.950;2023-07-31T04:30:36;7.03;;;4.13;;
72053;SDS011;59918;51.280;7.950;2023-07-31T04:33:01;10.45;;;4.00;;
72053;SDS011;59918;51.280;7.950;2023-07-31T04:35:26;12.75;;;4.22;;
72053;SDS011;59918;51.280;7.950;2023-07-31T04:37:52;9.30;;;4.00;;
72053;SDS011;59918;51.280;7.950;2023-07-31T04:40:17;8.95;;;3.90;;
72053;SDS011;59918;51.280;7.950;2023-07-31T04:42:42;10.40;;;4.07;;
72053;SDS011;59918;51.280;7.950;2023-07-31T04:45:08;11.85;;;4.32;;
72053;SDS011;59918;51.280;7.950;2023-07-31T04:47:34;12.43;;;4.65;;
72053;SDS011;59918;51.280;7.950;2023-07-31T04:49:59;9.02;;;3.92;;
72053;SDS011;59918;51.280;7.950;2023-07-31T04:52:24;16.50;;;4.40;;
72053;SDS011;59918;51.280;7.950;2023-07-31T04:54:49;10.02;;;4.55;;
72053;SDS011;59918;51.280;7.950;2023-07-31T04:57:15;6.90;;;3.92;;
72053;SDS011;59918;51.280;7.950;2023-07-31T04:59:40;10.73;;;4.18;;
72053;SDS011;59918;51.280;7.950;2023-07-31T05:02:06;6.47;;;3.70;;
72053;SDS011;59918;51.280;7.950;2023-07-31T05:04:32;7.05;;;4.13;;
72053;SDS011;59918;51.280;7.950;2023-07-31T05:06:58;14.88;;;3.83;;
72053;SDS011;59918;51.280;7.950;2023-07-31T05:09:23;5.20;;;3.40;;
72053;SDS011;59918;51.280;7.950;2023-07-31T05:11:48;9.68;;;3.70;;
72053;SDS011;59918;51.280;7.950;2023-07-31T05:14:13;7.82;;;3.63;;
72053;SDS011;59918;51.280;7.950;2023-07-31T05:16:39;7.07;;;3.78;;
72053;SDS011;59918;51.280;7.950;2023-07-31T05:19:04;6.68;;;3.40;;
72053;SDS011;59918;51.280;7.950;2023-07-31T05:21:29;4.95;;;3.88;;
72053;SDS011;59918;51.280;7.950;2023-07-31T05:23:54;6.85;;;3.80;;
72053;SDS011;59918;51.280;7.950;2023-07-31T05:26:20;10.02;;;4.05;;
72053;SDS011;59918;51.280;7.950;2023-07-31T05:28:45;6.35;;;4.15;;
72053;SDS011;59918;51.280;7.950;2023-07-31T05:31:10;9.07;;;3.70;;
72053;SDS011;59918;51.280;7.950;2023-07-31T05:33:35;7.28;;;4.30;;
72053;SDS011;59918;51.280;7.950;2023-07-31T05:36:01;7.30;;;4.40;;
72053;SDS011;59918;51.280;7.950;2023-07-31T05:38:26;9.73;;;4.28;;
72053;SDS011;59918;51.280;7.950;2023-07-31T05:40:51;6.30;;;4.40;;
72053;SDS011;59918;51.280;7.950;2023-07-31T05:43:16;9.25;;;4.78;;
72053;SDS011;59918;51.280;7.950;2023-07-31T05:45:44;8.85;;;5.10;;
72053;SDS011;59918;51.280;7.950;2023-07-31T05:48:09;10.68;;;4.45;;
72053;SDS011;59918;51.280;7.950;2023-07-31T05:50:34;9.50;;;5.07;;
72053;SDS011;59918;51.280;7.950;2023-07-31T05:53:00;8.75;;;5.05;;
72053;SDS011;59918;51.280;7.950;2023-07-31T05:55:25;10.13;;;4.32;;
72053;SDS011;59918;51.280;7.950;2023-07-31T05:57:50;6.03;;;4.78;;
72053;SDS011;59918;51.280;7.950;2023-07-31T06:00:15;6.53;;;4.57;;
72053;SDS011;59918;51.280;7.950;2023-07-31T06:02:41;8.38;;;5.10;;
72053;SDS011;59918;51.280;7.950;2023-07-31T06:05:06;8.27;;;4.65;;
72053;SDS011;59918;51.280;7.950;2023-07-31T06:07:32;9.23;;;4.90;;
72053;SDS011;59918;51.280;7.950;2023-07-31T06:09:57;9.55;;;4.93;;
72053;SDS011;59918;51.280;7.950;2023-07-31T06:12:22;7.22;;;4.97;;
72053;SDS011;59918;51.280;7.950;2023-07-31T06:14:48;7.90;;;5.10;;
72053;SDS011;59918;51.280;7.950;2023-07-31T06:17:13;10.77;;;5.53;;
72053;SDS011;59918;51.280;7.950;2023-07-31T06:19:38;7.25;;;5.60;;
72053;SDS011;59918;51.280;7.950;2023-07-31T06:22:03;7.03;;;5.35;;
72053;SDS011;59918;51.280;7.950;2023-07-31T06:24:29;6.50;;;5.50;;
72053;SDS011;59918;51.280;7.950;2023-07-31T06:26:54;11.15;;;5.70;;
72053;SDS011;59918;51.280;7.950;2023-07-31T06:29:20;9.43;;;6.03;;
72053;SDS011;59918;51.280;7.950;2023-07-31T06:31:45;8.85;;;4.80;;
72053;SDS011;59918;51.280;7.950;2023-07-31T06:34:10;9.93;;;5.15;;
72053;SDS011;59918;51.280;7.950;2023-07-31T06:36:36;14.65;;;6.07;;
72053;SDS011;59918;51.280;7.950;2023-07-31T06:39:01;11.95;;;6.28;;
72053;SDS011;59918;51.280;7.950;2023-07-31T06:41:26;7.15;;;5.72;;
72053;SDS011;59918;51.280;7.950;2023-07-31T06:43:51;8.05;;;5.50;;
72053;SDS011;59918;51.280;7.950;2023-07-31T06:46:17;7.45;;;5.60;;
72053;SDS011;59918;51.280;7.950;2023-07-31T06:48:42;7.75;;;5.40;;
72053;SDS011;59918;51.280;7.950;2023-07-31T06:51:07;8.82;;;5.63;;
72053;SDS011;59918;51.280;7.950;2023-07-31T06:53:32;9.48;;;5.20;;
72053;SDS011;59918;51.280;7.950;2023-07-31T06:55:58;8.20;;;5.20;;
72053;SDS011;59918;51.280;7.950;2023-07-31T06:58:23;9.23;;;5.82;;
72053;SDS011;59918;51.280;7.950;2023-07-31T07:00:48;9.98;;;5.25;;
72053;SDS011;59918;51.280;7.950;2023-07-31T07:03:13;6.93;;;4.85;;
72053;SDS011;59918;51.280;7.950;2023-07-31T07:05:39;5.78;;;4.30;;
72053;SDS011;59918;51.280;7.950;2023-07-31T07:08:04;7.88;;;4.32;;
72053;SDS011;59918;51.280;7.950;2023-07-31T07:10:29;7.03;;;4.70;;
72053;SDS011;59918;51.280;7.950;2023-07-31T07:12:54;10.50;;;5.10;;
72053;SDS011;59918;51.280;7.950;2023-07-31T07:15:20;12.95;;;4.10;;
72053;SDS011;59918;51.280;7.950;2023-07-31T07:17:45;11.82;;;4.40;;
72053;SDS011;59918;51.280;7.950;2023-07-31T07:20:10;9.88;;;4.43;;
72053;SDS011;59918;51.280;7.950;2023-07-31T07:22:35;7.65;;;4.15;;
72053;SDS011;59918;51.280;7.950;2023-07-31T07:25:01;6.20;;;4.10;;
72053;SDS011;59918;51.280;7.950;2023-07-31T07:27:27;6.93;;;4.38;;
72053;SDS011;59918;51.280;7.950;2023-07-31T07:29:52;8.60;;;4.80;;
72053;SDS011;59918;51.280;7.950;2023-07-31T07:32:17;8.40;;;3.65;;
72053;SDS011;59918;51.280;7.950;2023-07-31T07:34:42;10.65;;;3.55;;
72053;SDS011;59918;51.280;7.950;2023-07-31T07:37:08;5.28;;;3.42;;
72053;SDS011;59918;51.280;7.950;2023-07-31T07:39:33;4.82;;;3.13;;
72053;SDS011;59918;51.280;7.950;2023-07-31T07:41:58;7.65;;;3.33;;
72053;SDS011;59918;51.280;7.950;2023-07-31T07:44:23;6.25;;;3.55;;
72053;SDS011;59918;51.280;7.950;2023-07-31T07:46:49;4.78;;;3.40;;
72053;SDS011;59918;51.280;7.950;2023-07-31T07:49:14;7.57;;;3.60;;
72053;SDS011;59918;51.280;7.950;2023-07-31T07:51:42;5.85;;;3.17;;
72053;SDS011;59918;51.280;7.950;2023-07-31T07:54:07;4.90;;;3.63;;
72053;SDS011;59918;51.280;7.950;2023-07-31T07:56:32;4.15;;;3.38;;
72053;SDS011;59918;51.280;7.950;2023-07-31T07:58:58;8.40;;;4.07;;
72053;SDS011;59918;51.280;7.950;2023-07-31T08:01:23;6.18;;;3.92;;
72053;SDS011;59918;51.280;7.950;2023-07-31T08:03:48;5.38;;;3.30;;
72053;SDS011;59918;51.280;7.950;2023-07-31T08:06:14;6.35;;;4.20;;
72053;SDS011;59918;51.280;7.950;2023-07-31T08:08:39;5.28;;;3.65;;
72053;SDS011;59918;51.280;7.950;2023-07-31T08:11:05;6.20;;;3.42;;
72053;SDS011;59918;51.280;7.950;2023-07-31T08:13:30;7.20;;;3.85;;
72053;SDS011;59918;51.280;7.950;2023-07-31T08:15:55;7.35;;;4.10;;
72053;SDS011;59918;51.280;7.950;2023-07-31T08:18:20;6.95;;;3.72;;
72053;SDS011;59918;51.280;7.950;2023-07-31T08:20:46;6.45;;;4.40;;
72053;SDS011;59918;51.280;7.950;2023-07-31T08:23:11;6.85;;;4.20;;
72053;SDS011;59918;51.280;7.950;2023-07-31T08:25:37;7.95;;;3.95;;
72053;SDS011;59918;51.280;7.950;2023-07-31T08:28:08;9.65;;;3.85;;
72053;SDS011;59918;51.280;7.950;2023-07-31T08:30:33;8.00;;;4.27;;
72053;SDS011;59918;51.280;7.950;2023-07-31T08:32:59;7.20;;;3.97;;
72053;SDS011;59918;51.280;7.950;2023-07-31T08:35:25;4.10;;;3.70;;
72053;SDS011;59918;51.280;7.950;2023-07-31T08:37:59;9.73;;;3.78;;
72053;SDS011;59918;51.280;7.950;2023-07-31T08:40:37;8.80;;;3.88;;
72053;SDS011;59918;51.280;7.950;2023-07-31T08:43:02;5.65;;;3.88;;
72053;SDS011;59918;51.280;7.950;2023-07-31T08:45:28;4.85;;;3.35;;
72053;SDS011;59918;51.280;7.950;2023-07-31T08:47:57;5.70;;;3.97;;
72053;SDS011;59918;51.280;7.950;2023-07-31T08:50:23;3.83;;;2.85;;
72053;SDS011;59918;51.280;7.950;2023-07-31T08:52:49;4.30;;;3.10;;
72053;SDS011;59918;51.280;7.950;2023-07-31T08:55:24;3.40;;;3.10;;
72053;SDS011;59918;51.280;7.950;2023-07-31T09:00:36;3.50;;;2.90;;
72053;SDS011;59918;51.280;7.950;2023-07-31T09:03:02;6.88;;;3.85;;
72053;SDS011;59918;51.280;7.950;2023-07-31T09:05:29;3.63;;;3.25;;
72053;SDS011;59918;51.280;7.950;2023-07-31T09:07:58;3.58;;;3.20;;
72053;SDS011;59918;51.280;7.950;2023-07-31T09:10:23;4.32;;;3.20;;
72053;SDS011;59918;51.280;7.950;2023-07-31T09:12:50;4.22;;;2.83;;
72053;SDS011;59918;51.280;7.950;2023-07-31T09:15:16;3.67;;;2.90;;
72053;SDS011;59918;51.280;7.950;2023-07-31T09:20:23;4.55;;;2.60;;
72053;SDS011;59918;51.280;7.950;2023-07-31T09:22:48;5.38;;;3.20;;
72053;SDS011;59918;51.280;7.950;2023-07-31T09:25:23;5.35;;;3.20;;
72053;SDS011;59918;51.280;7.950;2023-07-31T09:28:03;5.63;;;2.80;;
72053;SDS011;59918;51.280;7.950;2023-07-31T09:33:14;2.63;;;2.20;;
72053;SDS011;59918;51.280;7.950;2023-07-31T09:35:40;4.75;;;2.47;;
72053;SDS011;59918;51.280;7.950;2023-07-31T09:38:09;3.85;;;2.45;;
72053;SDS011;59918;51.280;7.950;2023-07-31T09:40:37;3.13;;;2.70;;
72053;SDS011;59918;51.280;7.950;2023-07-31T09:43:04;2.55;;;2.35;;
72053;SDS011;59918;51.280;7.950;2023-07-31T09:45:37;2.33;;;2.05;;
72053;SDS011;59918;51.280;7.950;2023-07-31T09:48:11;3.38;;;2.45;;
72053;SDS011;59918;51.280;7.950;2023-07-31T09:50:38;4.18;;;2.47;;
72053;SDS011;59918;51.280;7.950;2023-07-31T09:53:06;2.92;;;2.45;;
72053;SDS011;59918;51.280;7.950;2023-07-31T09:55:35;2.50;;;2.05;;
72053;SDS011;59918;51.280;7.950;2023-07-31T09:58:06;4.07;;;2.00;;
72053;SDS011;59918;51.280;7.950;2023-07-31T10:00:35;2.10;;;1.90;;
72053;SDS011;59918;51.280;7.950;2023-07-31T10:03:05;2.35;;;2.10;;
72053;SDS011;59918;51.280;7.950;2023-07-31T10:05:36;5.25;;;2.60;;
72053;SDS011;59918;51.280;7.950;2023-07-31T10:08:04;1.80;;;1.70;;
72053;SDS011;59918;51.280;7.950;2023-07-31T10:10:35;2.10;;;1.50;;
72053;SDS011;59918;51.280;7.950;2023-07-31T10:13:01;2.92;;;1.95;;
72053;SDS011;59918;51.280;7.950;2023-07-31T10:15:27;2.67;;;1.60;;
72053;SDS011;59918;51.280;7.950;2023-07-31T10:17:56;2.03;;;1.73;;
72053;SDS011;59918;51.280;7.950;2023-07-31T10:20:23;1.75;;;1.55;;
72053;SDS011;59918;51.280;7.950;2023-07-31T10:22:49;1.80;;;1.63;;
72053;SDS011;59918;51.280;7.950;2023-07-31T10:25:15;3.40;;;1.60;;
72053;SDS011;59918;51.280;7.950;2023-07-31T10:27:44;1.65;;;1.55;;
72053;SDS011;59918;51.280;7.950;2023-07-31T10:30:12;1.63;;;1.45;;
72053;SDS011;59918;51.280;7.950;2023-07-31T10:32:40;1.73;;;1.60;;
72053;SDS011;59918;51.280;7.950;2023-07-31T10:35:10;3.17;;;1.90;;
72053;SDS011;59918;51.280;7.950;2023-07-31T10:37:37;3.83;;;2.45;;
72053;SDS011;59918;51.280;7.950;2023-07-31T10:40:04;3.22;;;1.70;;
72053;SDS011;59918;51.280;7.950;2023-07-31T10:42:34;2.42;;;1.38;;
72053;SDS011;59918;51.280;7.950;2023-07-31T10:45:09;1.67;;;1.50;;
72053;SDS011;59918;51.280;7.950;2023-07-31T10:47:38;1.50;;;1.40;;
72053;SDS011;59918;51.280;7.950;2023-07-31T10:52:50;2.22;;;1.58;;
72053;SDS011;59918;51.280;7.950;2023-07-31T10:58:11;1.70;;;1.60;;
72053;SDS011;59918;51.280;7.950;2023-07-31T11:00:39;2.45;;;1.75;;
72053;SDS011;59918;51.280;7.950;2023-07-31T11:03:09;4.30;;;1.42;;
72053;SDS011;59918;51.280;7.950;2023-07-31T11:08:14;2.92;;;1.50;;
72053;SDS011;59918;51.280;7.950;2023-07-31T11:10:46;2.42;;;1.70;;
72053;SDS011;59918;51.280;7.950;2023-07-31T11:13:12;1.30;;;1.20;;
72053;SDS011;59918;51.280;7.950;2023-07-31T11:15:38;1.50;;;1.40;;
72053;SDS011;59918;51.280;7.950;2023-07-31T11:18:03;2.03;;;1.48;;
72053;SDS011;59918;51.280;7.950;2023-07-31T11:20:29;1.75;;;1.33;;
72053;SDS011;59918;51.280;7.950;2023-07-31T11:22:59;1.40;;;1.30;;
72053;SDS011;59918;51.280;7.950;2023-07-31T11:25:26;2.00;;;1.23;;
72053;SDS011;59918;51.280;7.950;2023-07-31T11:27:51;2.10;;;1.65;;
72053;SDS011;59918;51.280;7.950;2023-07-31T11:30:18;2.20;;;1.50;;
72053;SDS011;59918;51.280;7.950;2023-07-31T11:32:46;3.10;;;2.00;;
72053;SDS011;59918;51.280;7.950;2023-07-31T11:35:12;3.90;;;2.72;;
72053;SDS011;59918;51.280;7.950;2023-07-31T11:37:41;2.17;;;1.98;;
72053;SDS011;59918;51.280;7.950;2023-07-31T11:40:12;2.60;;;2.10;;
72053;SDS011;59918;51.280;7.950;2023-07-31T11:42:38;4.07;;;2.20;;
72053;SDS011;59918;51.280;7.950;2023-07-31T11:45:12;1.95;;;1.85;;
72053;SDS011;59918;51.280;7.950;2023-07-31T11:47:37;2.40;;;2.17;;
72053;SDS011;59918;51.280;7.950;2023-07-31T11:50:03;3.63;;;2.42;;
72053;SDS011;59918;51.280;7.950;2023-07-31T11:52:35;3.10;;;2.53;;
72053;SDS011;59918;51.280;7.950;2023-07-31T11:55:04;2.78;;;2.50;;
72053;SDS011;59918;51.280;7.950;2023-07-31T11:57:33;3.42;;;2.63;;
72053;SDS011;59918;51.280;7.950;2023-07-31T11:59:59;3.65;;;2.35;;
72053;SDS011;59918;51.280;7.950;2023-07-31T12:02:24;3.40;;;2.47;;
72053;SDS011;59918;51.280;7.950;2023-07-31T12:04:49;6.13;;;2.60;;
72053;SDS011;59918;51.280;7.950;2023-07-31T12:07:15;3.03;;;2.60;;
72053;SDS011;59918;51.280;7.950;2023-07-31T12:12:55;3.30;;;3.00;;
72053;SDS011;59918;51.280;7.950;2023-07-31T12:15:38;3.85;;;2.70;;
72053;SDS011;59918;51.280;7.950;2023-07-31T12:18:04;8.30;;;2.90;;
72053;SDS011;59918;51.280;7.950;2023-07-31T12:20:30;3.30;;;2.30;;
72053;SDS011;59918;51.280;7.950;2023-07-31T12:23:05;3.28;;;2.80;;
72053;SDS011;59918;51.280;7.950;2023-07-31T12:25:36;3.15;;;2.10;;
72053;SDS011;59918;51.280;7.950;2023-07-31T12:28:04;2.30;;;2.10;;
72053;SDS011;59918;51.280;7.950;2023-07-31T12:30:34;2.30;;;2.10;;
72053;SDS011;59918;51.280;7.950;2023-07-31T12:33:15;2.10;;;2.00;;
72053;SDS011;59918;51.280;7.950;2023-07-31T12:35:47;2.55;;;1.73;;
72053;SDS011;59918;51.280;7.950;2023-07-31T12:38:13;3.05;;;2.38;;
72053;SDS011;59918;51.280;7.950;2023-07-31T12:40:39;3.03;;;1.98;;
72053;SDS011;59918;51.280;7.950;2023-07-31T12:43:06;3.17;;;1.83;;
72053;SDS011;59918;51.280;7.950;2023-07-31T12:45:40;2.75;;;1.70;;
72053;SDS011;59918;51.280;7.950;2023-07-31T12:48:05;3.40;;;2.17;;
72053;SDS011;59918;51.280;7.950;2023-07-31T12:50:36;2.03;;;1.90;;
72053;SDS011;59918;51.280;7.950;2023-07-31T12:53:02;2.70;;;2.50;;
72053;SDS011;59918;51.280;7.950;2023-07-31T12:55:28;3.47;;;3.13;;
72053;SDS011;59918;51.280;7.950;2023-07-31T12:57:53;3.08;;;2.83;;
72053;SDS011;59918;51.280;7.950;2023-07-31T13:00:18;3.47;;;3.15;;
72053;SDS011;59918;51.280;7.950;2023-07-31T13:02:46;3.88;;;3.40;;
72053;SDS011;59918;51.280;7.950;2023-07-31T13:05:11;3.40;;;3.10;;
72053;SDS011;59918;51.280;7.950;2023-07-31T13:07:37;3.55;;;3.25;;
72053;SDS011;59918;51.280;7.950;2023-07-31T13:10:02;4.45;;;4.05;;
72053;SDS011;59918;51.280;7.950;2023-07-31T13:12:27;6.35;;;5.13;;
72053;SDS011;59918;51.280;7.950;2023-07-31T13:14:53;6.32;;;5.10;;
72053;SDS011;59918;51.280;7.950;2023-07-31T13:17:21;4.10;;;3.80;;
72053;SDS011;59918;51.280;7.950;2023-07-31T13:19:46;4.10;;;3.80;;
72053;SDS011;59918;51.280;7.950;2023-07-31T13:22:11;4.38;;;4.07;;
72053;SDS011;59918;51.280;7.950;2023-07-31T13:24:36;4.00;;;3.70;;
72053;SDS011;59918;51.280;7.950;2023-07-31T13:27:02;4.55;;;4.18;;
72053;SDS011;59918;51.280;7.950;2023-07-31T13:29:27;7.63;;;4.30;;
72053;SDS011;59918;51.280;7.950;2023-07-31T13:31:52;4.53;;;4.10;;
72053;SDS011;59918;51.280;7.950;2023-07-31T13:34:23;4.22;;;3.92;;
72053;SDS011;59918;51.280;7.950;2023-07-31T13:36:49;4.82;;;4.53;;
72053;SDS011;59918;51.280;7.950;2023-07-31T13:39:14;4.57;;;4.18;;
72053;SDS011;59918;51.280;7.950;2023-07-31T13:41:39;4.55;;;4.15;;
72053;SDS011;59918;51.280;7.950;2023-07-31T13:44:05;4.65;;;4.35;;
72053;SDS011;59918;51.280;7.950;2023-07-31T13:46:36;6.22;;;4.32;;
72053;SDS011;59918;51.280;7.950;2023-07-31T13:49:01;3.90;;;3.40;;
72053;SDS011;59918;51.280;7.950;2023-07-31T13:51:27;4.32;;;2.85;;
72053;SDS011;59918;51.280;7.950;2023-07-31T13:53:52;3.60;;;3.40;;
72053;SDS011;59918;51.280;7.950;2023-07-31T13:56:17;4.40;;;2.88;;
72053;SDS011;59918;51.280;7.950;2023-07-31T13:58:46;3.38;;;2.78;;
72053;SDS011;59918;51.280;7.950;2023-07-31T14:01:11;3.40;;;3.10;;
72053;SDS011;59918;51.280;7.950;2023-07-31T14:03:36;3.00;;;2.80;;
72053;SDS011;59918;51.280;7.950;2023-07-31T14:06:01;3.20;;;3.00;;
72053;SDS011;59918;51.280;7.950;2023-07-31T14:08:27;3.17;;;2.90;;
72053;SDS011;59918;51.280;7.950;2023-07-31T14:10:52;2.35;;;2.15;;
72053;SDS011;59918;51.280;7.950;2023-07-31T14:13:17;2.83;;;2.63;;
72053;SDS011;59918;51.280;7.950;2023-07-31T14:15:48;2.20;;;2.10;;
72053;SDS011;59918;51.280;7.950;2023-07-31T14:18:14;2.00;;;1.90;;
72053;SDS011;59918;51.280;7.950;2023-07-31T14:20:39;2.45;;;2.10;;
72053;SDS011;59918;51.280;7.950;2023-07-31T14:23:04;2.25;;;2.05;;
72053;SDS011;59918;51.280;7.950;2023-07-31T14:25:30;2.40;;;2.30;;
72053;SDS011;59918;51.280;7.950;2023-07-31T14:27:58;2.53;;;1.67;;
72053;SDS011;59918;51.280;7.950;2023-07-31T14:30:23;1.85;;;1.75;;
72053;SDS011;59918;51.280;7.950;2023-07-31T14:32:49;2.10;;;1.90;;
72053;SDS011;59918;51.280;7.950;2023-07-31T14:35:14;2.63;;;2.40;;
72053;SDS011;59918;51.280;7.950;2023-07-31T14:37:39;3.00;;;2.80;;
72053;SDS011;59918;51.280;7.950;2023-07-31T14:40:06;3.10;;;2.90;;
72053;SDS011;59918;51.280;7.950;2023-07-31T14:42:36;3.28;;;2.95;;
72053;SDS011;59918;51.280;7.950;2023-07-31T14:45:03;3.45;;;3.22;;
72053;SDS011;59918;51.280;7.950;2023-07-31T14:47:29;3.53;;;3.22;;
72053;SDS011;59918;51.280;7.950;2023-07-31T14:49:54;3.88;;;3.22;;
72053;SDS011;59918;51.280;7.950;2023-07-31T14:52:25;3.97;;;3.60;;
72053;SDS011;59918;51.280;7.950;2023-07-31T14:54:51;3.92;;;3.63;;
72053;SDS011;59918;51.280;7.950;2023-07-31T14:57:17;4.40;;;4.10;;
72053;SDS011;59918;51.280;7.950;2023-07-31T14:59:42;6.05;;;3.75;;
72053;SDS011;59918;51.280;7.950;2023-07-31T15:02:14;3.60;;;3.40;;
72053;SDS011;59918;51.280;7.950;2023-07-31T15:04:39;3.75;;;3.45;;
72053;SDS011;59918;51.280;7.950;2023-07-31T15:07:05;4.00;;;3.67;;
72053;SDS011;59918;51.280;7.950;2023-07-31T15:09:30;4.13;;;3.83;;